sensor_id;sensor_type;location;lat;lon;timestamp;temperature;humidity
6948;DHT22;3513;47.664;9.162;2023-04-01T00:01:04;8.50;97.20
6948;DHT22;3513;47.664;9.162;2023-04-01T00:03:31;8.50;98.00
6948;DHT22;3513;47.664;9.162;2023-04-01T00:05:59;8.40;97.90
6948;DHT22;3513;47.664;9.162;2023-04-01T00:08:25;8.40;98.00
6948;DHT22;3513;47.664;9.162;2023-04-01T00:10:52;8.40;98.10
6948;DHT22;3513;47.664;9.162;2023-04-01T00:13:18;8.30;98.10
6948;DHT22;3513;47.664;9.162;2023-04-01T00:15:44;8.30;98.30
6948;DHT22;3513;47.664;9.162;2023-04-01T00:18:10;8.30;98.60
6948;DHT22;3513;47.664;9.162;2023-04-01T00:20:36;8.30;98.50
6948;DHT22;3513;47.664;9.162;2023-04-01T00:23:02;8.30;99.30
6948;DHT22;3513;47.664;9.162;2023-04-01T00:25:28;8.20;99.40
6948;DHT22;3513;47.664;9.162;2023-04-01T00:27:54;8.20;99.90
6948;DHT22;3513;47.664;9.162;2023-04-01T00:30:19;8.10;99.90
6948;DHT22;3513;47.664;9.162;2023-04-01T00:32:45;8.00;99.90
6948;DHT22;3513;47.664;9.162;2023-04-01T00:35:11;7.90;99.90
6948;DHT22;3513;47.664;9.162;2023-04-01T00:37:38;7.70;99.90
6948;DHT22;3513;47.664;9.162;2023-04-01T00:40:06;7.70;99.90
6948;DHT22;3513;47.664;9.162;2023-04-01T00:42:32;7.70;99.90
6948;DHT22;3513;47.664;9.162;2023-04-01T00:44:57;7.60;99.90
6948;DHT22;3513;47.664;9.162;2023-04-01T00:47:24;7.50;99.90
6948;DHT22;3513;47.664;9.162;2023-04-01T00:49:52;7.60;99.90
6948;DHT22;3513;47.664;9.162;2023-04-01T00:52:21;7.90;99.90
6948;DHT22;3513;47.664;9.162;2023-04-01T00:54:50;7.50;99.90
6948;DHT22;3513;47.664;9.162;2023-04-01T00:57:31;7.50;99.90
6948;DHT22;3513;47.664;9.162;2023-04-01T00:59:57;7.40;99.90
6948;DHT22;3513;47.664;9.162;2023-04-01T01:02:25;7.40;99.90
6948;DHT22;3513;47.664;9.162;2023-04-01T01:04:50;7.30;99.90
6948;DHT22;3513;47.664;9.162;2023-04-01T01:15:46;7.20;99.90
6948;DHT22;3513;47.664;9.162;2023-04-01T01:21:19;7.20;99.90
6948;DHT22;3513;47.664;9.162;2023-04-01T01:29:34;7.10;99.90
6948;DHT22;3513;47.664;9.162;2023-04-01T01:32:23;7.10;99.90
6948;DHT22;3513;47.664;9.162;2023-04-01T01:38:03;7.10;99.90
6948;DHT22;3513;47.664;9.162;2023-04-01T01:40:31;7.00;99.90
6948;DHT22;3513;47.664;9.162;2023-04-01T01:43:05;7.00;99.90
6948;DHT22;3513;47.664;9.162;2023-04-01T01:45:56;7.00;99.90
6948;DHT22;3513;47.664;9.162;2023-04-01T01:48:24;7.10;99.90
6948;DHT22;3513;47.664;9.162;2023-04-01T01:50:51;7.10;99.90
6948;DHT22;3513;47.664;9.162;2023-04-01T01:53:17;7.10;99.90
6948;DHT22;3513;47.664;9.162;2023-04-01T01:55:44;7.10;99.90
6948;DHT22;3513;47.664;9.162;2023-04-01T01:58:21;7.10;99.90
6948;DHT22;3513;47.664;9.162;2023-04-01T02:00:51;7.20;99.90
6948;DHT22;3513;47.664;9.162;2023-04-01T02:03:20;7.20;99.90
6948;DHT22;3513;47.664;9.162;2023-04-01T02:05:47;7.30;99.90
6948;DHT22;3513;47.664;9.162;2023-04-01T02:08:16;7.40;99.90
6948;DHT22;3513;47.664;9.162;2023-04-01T02:10:56;7.50;99.90
6948;DHT22;3513;47.664;9.162;2023-04-01T02:13:31;7.50;99.90
6948;DHT22;3513;47.664;9.162;2023-04-01T02:16:02;7.50;99.90
6948;DHT22;3513;47.664;9.162;2023-04-01T02:18:31;7.60;99.90
6948;DHT22;3513;47.664;9.162;2023-04-01T02:20:59;7.50;99.90
6948;DHT22;3513;47.664;9.162;2023-04-01T02:23:26;7.50;99.90
6948;DHT22;3513;47.664;9.162;2023-04-01T02:25:53;7.50;99.90
6948;DHT22;3513;47.664;9.162;2023-04-01T02:28:20;7.50;99.90
6948;DHT22;3513;47.664;9.162;2023-04-01T02:30:48;7.60;99.90
6948;DHT22;3513;47.664;9.162;2023-04-01T02:33:15;7.60;99.90
6948;DHT22;3513;47.664;9.162;2023-04-01T02:35:42;7.60;99.90
6948;DHT22;3513;47.664;9.162;2023-04-01T02:38:07;7.60;99.90
6948;DHT22;3513;47.664;9.162;2023-04-01T02:40:48;7.70;99.90
6948;DHT22;3513;47.664;9.162;2023-04-01T02:43:14;7.70;99.90
6948;DHT22;3513;47.664;9.162;2023-04-01T02:45:39;7.70;99.90
6948;DHT22;3513;47.664;9.162;2023-04-01T02:48:05;7.60;99.90
6948;DHT22;3513;47.664;9.162;2023-04-01T02:50:31;7.60;99.90
6948;DHT22;3513;47.664;9.162;2023-04-01T02:52:56;7.60;99.90
6948;DHT22;3513;47.664;9.162;2023-04-01T02:55:22;7.80;99.90
6948;DHT22;3513;47.664;9.162;2023-04-01T02:57:48;7.60;99.90
6948;DHT22;3513;47.664;9.162;2023-04-01T03:00:14;7.60;99.90
6948;DHT22;3513;47.664;9.162;2023-04-01T03:02:40;7.60;99.90
6948;DHT22;3513;47.664;9.162;2023-04-01T03:05:05;7.70;99.90
6948;DHT22;3513;47.664;9.162;2023-04-01T03:07:31;7.70;99.90
6948;DHT22;3513;47.664;9.162;2023-04-01T03:09:57;7.70;99.90
6948;DHT22;3513;47.664;9.162;2023-04-01T03:12:22;7.70;99.90
6948;DHT22;3513;47.664;9.162;2023-04-01T03:14:48;7.60;99.90
6948;DHT22;3513;47.664;9.162;2023-04-01T03:17:13;7.70;99.90
6948;DHT22;3513;47.664;9.162;2023-04-01T03:19:39;7.60;99.90
6948;DHT22;3513;47.664;9.162;2023-04-01T03:22:05;7.70;99.90
6948;DHT22;3513;47.664;9.162;2023-04-01T03:24:31;7.70;99.90
6948;DHT22;3513;47.664;9.162;2023-04-01T03:26:56;7.60;99.90
6948;DHT22;3513;47.664;9.162;2023-04-01T03:29:22;7.70;99.90
6948;DHT22;3513;47.664;9.162;2023-04-01T03:31:47;7.70;99.90
6948;DHT22;3513;47.664;9.162;2023-04-01T03:34:13;7.70;99.90
6948;DHT22;3513;47.664;9.162;2023-04-01T03:36:38;7.70;99.90
6948;DHT22;3513;47.664;9.162;2023-04-01T03:39:04;7.70;99.90
6948;DHT22;3513;47.664;9.162;2023-04-01T03:41:32;7.70;99.90
6948;DHT22;3513;47.664;9.162;2023-04-01T03:43:57;7.70;99.90
6948;DHT22;3513;47.664;9.162;2023-04-01T03:46:23;7.80;99.90
6948;DHT22;3513;47.664;9.162;2023-04-01T03:48:49;7.80;99.70
6948;DHT22;3513;47.664;9.162;2023-04-01T03:51:14;7.80;99.40
6948;DHT22;3513;47.664;9.162;2023-04-01T03:53:40;7.80;99.60
6948;DHT22;3513;47.664;9.162;2023-04-01T03:56:06;7.80;99.40
6948;DHT22;3513;47.664;9.162;2023-04-01T03:58:32;7.80;99.10
6948;DHT22;3513;47.664;9.162;2023-04-01T04:00:58;7.90;99.10
6948;DHT22;3513;47.664;9.162;2023-04-01T04:03:23;7.90;99.00
6948;DHT22;3513;47.664;9.162;2023-04-01T04:05:49;7.90;98.70
6948;DHT22;3513;47.664;9.162;2023-04-01T04:08:15;7.90;98.70
6948;DHT22;3513;47.664;9.162;2023-04-01T04:10:41;7.90;98.90
6948;DHT22;3513;47.664;9.162;2023-04-01T04:13:07;7.90;98.80
6948;DHT22;3513;47.664;9.162;2023-04-01T04:15:33;7.80;98.80
6948;DHT22;3513;47.664;9.162;2023-04-01T04:17:58;7.80;98.40
6948;DHT22;3513;47.664;9.162;2023-04-01T04:20:24;7.90;98.20
6948;DHT22;3513;47.664;9.162;2023-04-01T04:22:49;7.80;98.40
6948;DHT22;3513;47.664;9.162;2023-04-01T04:25:15;7.80;98.50
6948;DHT22;3513;47.664;9.162;2023-04-01T04:27:41;7.80;98.50
6948;DHT22;3513;47.664;9.162;2023-04-01T04:30:08;7.80;98.50
6948;DHT22;3513;47.664;9.162;2023-04-01T04:32:34;7.80;98.30
6948;DHT22;3513;47.664;9.162;2023-04-01T04:34:59;7.90;98.40
6948;DHT22;3513;47.664;9.162;2023-04-01T04:37:25;8.00;98.80
6948;DHT22;3513;47.664;9.162;2023-04-01T04:39:51;7.80;98.70
6948;DHT22;3513;47.664;9.162;2023-04-01T04:42:16;7.80;98.70
6948;DHT22;3513;47.664;9.162;2023-04-01T04:44:42;7.80;98.70
6948;DHT22;3513;47.664;9.162;2023-04-01T04:47:08;7.80;98.90
6948;DHT22;3513;47.664;9.162;2023-04-01T04:49:33;7.80;99.20
6948;DHT22;3513;47.664;9.162;2023-04-01T04:51:59;7.70;99.50
6948;DHT22;3513;47.664;9.162;2023-04-01T04:54:24;7.60;99.90
6948;DHT22;3513;47.664;9.162;2023-04-01T04:56:53;7.50;99.90
6948;DHT22;3513;47.664;9.162;2023-04-01T04:59:19;7.50;99.90
6948;DHT22;3513;47.664;9.162;2023-04-01T05:01:44;7.40;99.90
6948;DHT22;3513;47.664;9.162;2023-04-01T05:04:10;7.40;99.90
6948;DHT22;3513;47.664;9.162;2023-04-01T05:06:36;7.30;99.90
6948;DHT22;3513;47.664;9.162;2023-04-01T05:09:01;7.30;99.90
6948;DHT22;3513;47.664;9.162;2023-04-01T05:11:27;7.30;99.90
6948;DHT22;3513;47.664;9.162;2023-04-01T05:13:52;7.20;99.90
6948;DHT22;3513;47.664;9.162;2023-04-01T05:16:19;7.20;99.90
6948;DHT22;3513;47.664;9.162;2023-04-01T05:18:46;7.20;99.90
6948;DHT22;3513;47.664;9.162;2023-04-01T05:21:13;7.30;99.90
6948;DHT22;3513;47.664;9.162;2023-04-01T05:23:39;7.30;99.90
6948;DHT22;3513;47.664;9.162;2023-04-01T05:26:11;7.40;99.90
6948;DHT22;3513;47.664;9.162;2023-04-01T05:28:37;7.30;99.90
6948;DHT22;3513;47.664;9.162;2023-04-01T05:31:04;7.30;99.90
6948;DHT22;3513;47.664;9.162;2023-04-01T05:33:30;7.30;99.90
6948;DHT22;3513;47.664;9.162;2023-04-01T05:35:56;7.30;99.90
6948;DHT22;3513;47.664;9.162;2023-04-01T05:38:22;7.30;99.90
6948;DHT22;3513;47.664;9.162;2023-04-01T05:40:48;7.30;99.90
6948;DHT22;3513;47.664;9.162;2023-04-01T05:43:13;7.40;99.90
6948;DHT22;3513;47.664;9.162;2023-04-01T05:45:39;7.40;99.90
6948;DHT22;3513;47.664;9.162;2023-04-01T05:48:04;7.50;99.90
6948;DHT22;3513;47.664;9.162;2023-04-01T05:50:30;7.50;99.90
6948;DHT22;3513;47.664;9.162;2023-04-01T05:52:56;7.50;99.90
6948;DHT22;3513;47.664;9.162;2023-04-01T05:55:21;7.60;99.90
6948;DHT22;3513;47.664;9.162;2023-04-01T05:57:47;7.70;99.70
6948;DHT22;3513;47.664;9.162;2023-04-01T06:00:15;7.70;99.50
6948;DHT22;3513;47.664;9.162;2023-04-01T06:02:44;7.70;99.60
6948;DHT22;3513;47.664;9.162;2023-04-01T06:05:27;7.70;99.90
6948;DHT22;3513;47.664;9.162;2023-04-01T06:07:59;7.70;99.90
6948;DHT22;3513;47.664;9.162;2023-04-01T06:11:22;7.60;99.60
6948;DHT22;3513;47.664;9.162;2023-04-01T06:24:17;7.80;98.70
6948;DHT22;3513;47.664;9.162;2023-04-01T06:35:20;8.00;98.60
6948;DHT22;3513;47.664;9.162;2023-04-01T06:38:19;8.10;98.10
6948;DHT22;3513;47.664;9.162;2023-04-01T06:51:56;8.50;97.60
6948;DHT22;3513;47.664;9.162;2023-04-01T06:57:00;8.50;97.80
6948;DHT22;3513;47.664;9.162;2023-04-01T06:59:30;8.50;97.50
6948;DHT22;3513;47.664;9.162;2023-04-01T07:02:12;8.50;98.20
6948;DHT22;3513;47.664;9.162;2023-04-01T07:04:45;8.50;98.30
6948;DHT22;3513;47.664;9.162;2023-04-01T07:07:25;8.50;98.30
6948;DHT22;3513;47.664;9.162;2023-04-01T07:09:55;8.60;97.90
6948;DHT22;3513;47.664;9.162;2023-04-01T07:12:40;8.70;97.90
6948;DHT22;3513;47.664;9.162;2023-04-01T07:15:21;8.70;97.30
6948;DHT22;3513;47.664;9.162;2023-04-01T07:17:53;8.80;97.00
6948;DHT22;3513;47.664;9.162;2023-04-01T07:20:25;8.80;97.50
6948;DHT22;3513;47.664;9.162;2023-04-01T07:22:55;8.80;97.10
6948;DHT22;3513;47.664;9.162;2023-04-01T07:25:25;8.90;96.50
6948;DHT22;3513;47.664;9.162;2023-04-01T07:27:55;8.90;97.20
6948;DHT22;3513;47.664;9.162;2023-04-01T07:30:23;8.90;96.40
6948;DHT22;3513;47.664;9.162;2023-04-01T07:35:34;9.00;96.50
6948;DHT22;3513;47.664;9.162;2023-04-01T07:40:57;9.10;96.10
6948;DHT22;3513;47.664;9.162;2023-04-01T07:46:27;9.10;96.30
6948;DHT22;3513;47.664;9.162;2023-04-01T07:57:14;9.20;96.10
6948;DHT22;3513;47.664;9.162;2023-04-01T08:00:02;9.30;95.70
6948;DHT22;3513;47.664;9.162;2023-04-01T08:05:28;9.30;95.50
6948;DHT22;3513;47.664;9.162;2023-04-01T08:16:57;9.40;95.50
6948;DHT22;3513;47.664;9.162;2023-04-01T08:22:30;9.40;96.20
6948;DHT22;3513;47.664;9.162;2023-04-01T08:25:02;9.40;97.00
6948;DHT22;3513;47.664;9.162;2023-04-01T08:27:39;9.40;96.50
6948;DHT22;3513;47.664;9.162;2023-04-01T08:30:26;9.20;95.60
6948;DHT22;3513;47.664;9.162;2023-04-01T08:33:13;9.20;96.40
6948;DHT22;3513;47.664;9.162;2023-04-01T08:38:16;9.20;95.60
6948;DHT22;3513;47.664;9.162;2023-04-01T08:40:52;9.20;95.70
6948;DHT22;3513;47.664;9.162;2023-04-01T09:00:53;9.00;96.70
6948;DHT22;3513;47.664;9.162;2023-04-01T09:09:40;8.90;97.40
6948;DHT22;3513;47.664;9.162;2023-04-01T09:26:17;8.80;97.90
6948;DHT22;3513;47.664;9.162;2023-04-01T09:46:54;8.80;97.90
6948;DHT22;3513;47.664;9.162;2023-04-01T09:52:31;8.90;98.10
6948;DHT22;3513;47.664;9.162;2023-04-01T10:11:33;9.20;96.10
6948;DHT22;3513;47.664;9.162;2023-04-01T10:14:36;9.20;96.30
6948;DHT22;3513;47.664;9.162;2023-04-01T10:28:46;9.50;95.90
6948;DHT22;3513;47.664;9.162;2023-04-01T10:56:20;9.80;95.60
6948;DHT22;3513;47.664;9.162;2023-04-01T11:15:36;10.20;95.50
6948;DHT22;3513;47.664;9.162;2023-04-01T11:18:29;10.20;94.30
6948;DHT22;3513;47.664;9.162;2023-04-01T11:26:33;10.50;93.70
6948;DHT22;3513;47.664;9.162;2023-04-01T11:29:36;10.60;93.20
6948;DHT22;3513;47.664;9.162;2023-04-01T11:35:32;10.50;92.50
6948;DHT22;3513;47.664;9.162;2023-04-01T11:43:47;10.70;91.90
6948;DHT22;3513;47.664;9.162;2023-04-01T11:46:25;10.60;91.70
6948;DHT22;3513;47.664;9.162;2023-04-01T11:49:29;10.60;92.20
6948;DHT22;3513;47.664;9.162;2023-04-01T11:57:39;10.60;91.80
6948;DHT22;3513;47.664;9.162;2023-04-01T12:00:38;10.70;91.60
6948;DHT22;3513;47.664;9.162;2023-04-01T12:03:28;10.80;91.80
6948;DHT22;3513;47.664;9.162;2023-04-01T12:14:37;11.00;91.00
6948;DHT22;3513;47.664;9.162;2023-04-01T12:39:22;10.60;92.40
6948;DHT22;3513;47.664;9.162;2023-04-01T12:44:32;10.50;94.20
6948;DHT22;3513;47.664;9.162;2023-04-01T12:58:19;10.50;95.50
6948;DHT22;3513;47.664;9.162;2023-04-01T13:16:53;10.20;96.10
6948;DHT22;3513;47.664;9.162;2023-04-01T13:19:35;10.20;96.80
6948;DHT22;3513;47.664;9.162;2023-04-01T13:24:58;10.30;96.30
6948;DHT22;3513;47.664;9.162;2023-04-01T13:27:33;10.30;95.50
6948;DHT22;3513;47.664;9.162;2023-04-01T13:32:54;10.20;95.00
6948;DHT22;3513;47.664;9.162;2023-04-01T13:44:56;10.30;95.00
6948;DHT22;3513;47.664;9.162;2023-04-01T14:15:55;10.60;93.40
6948;DHT22;3513;47.664;9.162;2023-04-01T14:21:41;10.60;95.00
6948;DHT22;3513;47.664;9.162;2023-04-01T14:24:19;10.50;96.40
6948;DHT22;3513;47.664;9.162;2023-04-01T14:40:56;10.20;97.60
6948;DHT22;3513;47.664;9.162;2023-04-01T14:48:59;10.50;95.70
6948;DHT22;3513;47.664;9.162;2023-04-01T14:51:34;10.70;94.20
6948;DHT22;3513;47.664;9.162;2023-04-01T14:54:32;10.70;94.40
6948;DHT22;3513;47.664;9.162;2023-04-01T14:59:51;10.40;95.00
6948;DHT22;3513;47.664;9.162;2023-04-01T15:02:37;10.40;95.00
6948;DHT22;3513;47.664;9.162;2023-04-01T15:16:27;10.60;94.80
6948;DHT22;3513;47.664;9.162;2023-04-01T15:32:51;10.20;94.40
6948;DHT22;3513;47.664;9.162;2023-04-01T15:35:55;9.90;95.80
6948;DHT22;3513;47.664;9.162;2023-04-01T15:38:33;9.80;96.10
6948;DHT22;3513;47.664;9.162;2023-04-01T15:41:23;9.70;96.00
6948;DHT22;3513;47.664;9.162;2023-04-01T15:43:51;9.80;96.30
6948;DHT22;3513;47.664;9.162;2023-04-01T15:46:41;9.80;96.00
6948;DHT22;3513;47.664;9.162;2023-04-01T15:52:03;9.20;95.40
6948;DHT22;3513;47.664;9.162;2023-04-01T16:20:25;10.40;93.60
6948;DHT22;3513;47.664;9.162;2023-04-01T16:23:20;10.40;93.50
6948;DHT22;3513;47.664;9.162;2023-04-01T16:26:08;10.40;93.50
6948;DHT22;3513;47.664;9.162;2023-04-01T16:28:51;10.40;93.40
6948;DHT22;3513;47.664;9.162;2023-04-01T16:37:10;10.30;92.80
6948;DHT22;3513;47.664;9.162;2023-04-01T16:45:26;10.40;93.00
6948;DHT22;3513;47.664;9.162;2023-04-01T16:48:01;10.40;92.60
6948;DHT22;3513;47.664;9.162;2023-04-01T16:50:44;10.30;92.80
6948;DHT22;3513;47.664;9.162;2023-04-01T16:55:54;10.50;93.10
6948;DHT22;3513;47.664;9.162;2023-04-01T17:03:45;10.80;93.10
6948;DHT22;3513;47.664;9.162;2023-04-01T17:06:19;11.30;92.70
6948;DHT22;3513;47.664;9.162;2023-04-01T17:11:24;11.60;91.50
6948;DHT22;3513;47.664;9.162;2023-04-01T17:22:02;10.70;93.40
6948;DHT22;3513;47.664;9.162;2023-04-01T17:30:05;10.30;94.40
6948;DHT22;3513;47.664;9.162;2023-04-01T17:35:08;10.30;94.60
6948;DHT22;3513;47.664;9.162;2023-04-01T17:43:26;10.30;94.70
6948;DHT22;3513;47.664;9.162;2023-04-01T17:46:10;10.20;95.00
6948;DHT22;3513;47.664;9.162;2023-04-01T17:49:00;10.20;94.90
6948;DHT22;3513;47.664;9.162;2023-04-01T17:51:34;10.10;95.00
6948;DHT22;3513;47.664;9.162;2023-04-01T17:54:10;10.00;95.40
6948;DHT22;3513;47.664;9.162;2023-04-01T17:59:42;10.00;95.20
6948;DHT22;3513;47.664;9.162;2023-04-01T18:02:42;10.00;94.70
6948;DHT22;3513;47.664;9.162;2023-04-01T18:20:02;9.70;95.80
6948;DHT22;3513;47.664;9.162;2023-04-01T18:22:57;9.60;96.10
6948;DHT22;3513;47.664;9.162;2023-04-01T18:25:36;9.60;96.10
6948;DHT22;3513;47.664;9.162;2023-04-01T18:28:22;9.60;96.30
6948;DHT22;3513;47.664;9.162;2023-04-01T18:39:18;9.50;96.50
6948;DHT22;3513;47.664;9.162;2023-04-01T18:44:52;9.40;96.50
6948;DHT22;3513;47.664;9.162;2023-04-01T18:53:15;9.30;96.70
6948;DHT22;3513;47.664;9.162;2023-04-01T18:56:03;9.30;96.90
6948;DHT22;3513;47.664;9.162;2023-04-01T18:58:52;9.20;96.90
6948;DHT22;3513;47.664;9.162;2023-04-01T19:04:37;9.20;97.30
6948;DHT22;3513;47.664;9.162;2023-04-01T19:09:52;9.10;97.30
6948;DHT22;3513;47.664;9.162;2023-04-01T19:15:13;9.10;97.30
6948;DHT22;3513;47.664;9.162;2023-04-01T19:18:07;9.00;97.40
6948;DHT22;3513;47.664;9.162;2023-04-01T19:20:53;9.80;97.50
6948;DHT22;3513;47.664;9.162;2023-04-01T19:25:59;9.00;97.10
6948;DHT22;3513;47.664;9.162;2023-04-01T19:37:11;9.00;96.80
6948;DHT22;3513;47.664;9.162;2023-04-01T19:42:47;9.00;96.50
6948;DHT22;3513;47.664;9.162;2023-04-01T19:53:44;8.90;96.90
6948;DHT22;3513;47.664;9.162;2023-04-01T19:56:21;8.90;97.10
6948;DHT22;3513;47.664;9.162;2023-04-01T20:08:15;8.80;97.40
6948;DHT22;3513;47.664;9.162;2023-04-01T20:17:42;8.60;97.60
6948;DHT22;3513;47.664;9.162;2023-04-01T20:20:31;8.70;97.50
6948;DHT22;3513;47.664;9.162;2023-04-01T20:25:24;8.80;97.50
6948;DHT22;3513;47.664;9.162;2023-04-01T20:27:58;8.80;97.40
6948;DHT22;3513;47.664;9.162;2023-04-01T20:36:06;8.70;97.70
6948;DHT22;3513;47.664;9.162;2023-04-01T20:46:30;8.50;98.30
6948;DHT22;3513;47.664;9.162;2023-04-01T20:57:19;8.30;99.30
6948;DHT22;3513;47.664;9.162;2023-04-01T21:05:21;8.20;99.40
6948;DHT22;3513;47.664;9.162;2023-04-01T21:16:47;8.10;99.90
6948;DHT22;3513;47.664;9.162;2023-04-01T21:44:03;8.20;99.70
6948;DHT22;3513;47.664;9.162;2023-04-01T21:52:24;8.00;99.90
6948;DHT22;3513;47.664;9.162;2023-04-01T22:00:38;8.10;99.90
6948;DHT22;3513;47.664;9.162;2023-04-01T22:06:00;7.90;99.90
6948;DHT22;3513;47.664;9.162;2023-04-01T22:14:01;8.00;99.90
6948;DHT22;3513;47.664;9.162;2023-04-01T22:32:31;7.70;99.90
6948;DHT22;3513;47.664;9.162;2023-04-01T22:42:40;7.80;99.20
6948;DHT22;3513;47.664;9.162;2023-04-01T22:53:08;7.90;98.30
6948;DHT22;3513;47.664;9.162;2023-04-01T22:55:41;7.90;98.30
6948;DHT22;3513;47.664;9.162;2023-04-01T22:58:13;7.90;98.10
6948;DHT22;3513;47.664;9.162;2023-04-01T23:00:49;7.90;98.00
6948;DHT22;3513;47.664;9.162;2023-04-01T23:03:31;7.90;98.20
6948;DHT22;3513;47.664;9.162;2023-04-01T23:06:00;7.90;98.00
6948;DHT22;3513;47.664;9.162;2023-04-01T23:11:26;7.90;97.90
6948;DHT22;3513;47.664;9.162;2023-04-01T23:16:38;7.90;97.90
6948;DHT22;3513;47.664;9.162;2023-04-01T23:19:31;8.00;97.90
6948;DHT22;3513;47.664;9.162;2023-04-01T23:24:33;7.90;97.90
6948;DHT22;3513;47.664;9.162;2023-04-01T23:27:31;7.90;97.80
6948;DHT22;3513;47.664;9.162;2023-04-01T23:29:59;7.90;97.70
6948;DHT22;3513;47.664;9.162;2023-04-01T23:32:25;7.90;97.40
6948;DHT22;3513;47.664;9.162;2023-04-01T23:34:55;7.90;97.60
6948;DHT22;3513;47.664;9.162;2023-04-01T23:37:23;7.80;97.50
6948;DHT22;3513;47.664;9.162;2023-04-01T23:39:56;7.80;97.40
6948;DHT22;3513;47.664;9.162;2023-04-01T23:42:28;7.80;97.40
6948;DHT22;3513;47.664;9.162;2023-04-01T23:45:03;7.80;97.70
6948;DHT22;3513;47.664;9.162;2023-04-01T23:47:35;7.80;97.50
6948;DHT22;3513;47.664;9.162;2023-04-01T23:50:06;7.80;97.50
6948;DHT22;3513;47.664;9.162;2023-04-01T23:52:39;7.80;97.60
6948;DHT22;3513;47.664;9.162;2023-04-01T23:55:19;7.70;97.70
